sensor_id;sensor_type;location;lat;lon;timestamp;P1;durP1;ratioP1;P2;durP2;ratioP2
51006;SDS011;37034;47.886;-3.904;2023-07-20T00:01:30;5.10;;;1.17;;
51006;SDS011;37034;47.886;-3.904;2023-07-20T00:03:55;12.25;;;2.03;;
51006;SDS011;37034;47.886;-3.904;2023-07-20T00:06:21;12.05;;;2.22;;
51006;SDS011;37034;47.886;-3.904;2023-07-20T00:08:48;9.13;;;1.45;;
51006;SDS011;37034;47.886;-3.904;2023-07-20T00:11:14;6.43;;;1.30;;
51006;SDS011;37034;47.886;-3.904;2023-07-20T00:13:40;8.18;;;1.55;;
51006;SDS011;37034;47.886;-3.904;2023-07-20T00:16:06;11.70;;;1.52;;
51006;SDS011;37034;47.886;-3.904;2023-07-20T00:18:31;6.45;;;1.42;;
51006;SDS011;37034;47.886;-3.904;2023-07-20T00:20:57;11.00;;;1.35;;
51006;SDS011;37034;47.886;-3.904;2023-07-20T00:23:24;8.25;;;1.50;;
51006;SDS011;37034;47.886;-3.904;2023-07-20T00:25:51;4.90;;;1.30;;
51006;SDS011;37034;47.886;-3.904;2023-07-20T00:28:17;5.70;;;1.80;;
51006;SDS011;37034;47.886;-3.904;2023-07-20T00:30:42;5.28;;;1.48;;
51006;SDS011;37034;47.886;-3.904;2023-07-20T00:33:11;7.28;;;1.23;;
51006;SDS011;37034;47.886;-3.904;2023-07-20T00:35:38;3.17;;;1.13;;
51006;SDS011;37034;47.886;-3.904;2023-07-20T00:40:39;5.45;;;1.50;;
51006;SDS011;37034;47.886;-3.904;2023-07-20T00:43:06;5.60;;;1.00;;
51006;SDS011;37034;47.886;-3.904;2023-07-20T00:45:33;7.40;;;1.63;;
51006;SDS011;37034;47.886;-3.904;2023-07-20T00:47:59;7.57;;;1.67;;
51006;SDS011;37034;47.886;-3.904;2023-07-20T00:50:26;6.38;;;1.27;;
51006;SDS011;37034;47.886;-3.904;2023-07-20T00:52:54;5.95;;;1.30;;
51006;SDS011;37034;47.886;-3.904;2023-07-20T00:55:21;8.27;;;1.63;;
51006;SDS011;37034;47.886;-3.904;2023-07-20T00:57:48;5.18;;;1.23;;
51006;SDS011;37034;47.886;-3.904;2023-07-20T01:00:15;6.70;;;1.10;;
51006;SDS011;37034;47.886;-3.904;2023-07-20T01:02:41;6.05;;;1.15;;
51006;SDS011;37034;47.886;-3.904;2023-07-20T01:05:07;12.10;;;1.87;;
51006;SDS011;37034;47.886;-3.904;2023-07-20T01:07:37;6.30;;;1.58;;
51006;SDS011;37034;47.886;-3.904;2023-07-20T01:13:01;8.30;;;1.30;;
51006;SDS011;37034;47.886;-3.904;2023-07-20T01:15:28;6.50;;;1.25;;
51006;SDS011;37034;47.886;-3.904;2023-07-20T01:17:54;7.50;;;1.40;;
51006;SDS011;37034;47.886;-3.904;2023-07-20T01:20:20;7.90;;;1.73;;
51006;SDS011;37034;47.886;-3.904;2023-07-20T01:33:44;9.35;;;1.58;;
51006;SDS011;37034;47.886;-3.904;2023-07-20T01:36:12;3.42;;;0.90;;
51006;SDS011;37034;47.886;-3.904;2023-07-20T01:38:40;4.78;;;0.90;;
51006;SDS011;37034;47.886;-3.904;2023-07-20T01:41:06;6.90;;;1.40;;
51006;SDS011;37034;47.886;-3.904;2023-07-20T01:43:33;6.78;;;1.23;;
51006;SDS011;37034;47.886;-3.904;2023-07-20T01:45:59;4.70;;;1.20;;
51006;SDS011;37034;47.886;-3.904;2023-07-20T01:48:25;9.88;;;1.40;;
51006;SDS011;37034;47.886;-3.904;2023-07-20T01:50:50;7.07;;;1.40;;
51006;SDS011;37034;47.886;-3.904;2023-07-20T01:53:16;10.32;;;1.42;;
51006;SDS011;37034;47.886;-3.904;2023-07-20T01:55:42;6.63;;;1.50;;
51006;SDS011;37034;47.886;-3.904;2023-07-20T01:58:08;10.80;;;1.83;;
51006;SDS011;37034;47.886;-3.904;2023-07-20T02:00:34;8.65;;;1.40;;
51006;SDS011;37034;47.886;-3.904;2023-07-20T02:03:01;8.77;;;2.47;;
51006;SDS011;37034;47.886;-3.904;2023-07-20T02:05:27;5.88;;;1.60;;
51006;SDS011;37034;47.886;-3.904;2023-07-20T02:07:53;6.95;;;2.10;;
51006;SDS011;37034;47.886;-3.904;2023-07-20T02:10:18;10.48;;;1.92;;
51006;SDS011;37034;47.886;-3.904;2023-07-20T02:12:44;7.17;;;1.70;;
51006;SDS011;37034;47.886;-3.904;2023-07-20T02:15:10;10.73;;;1.65;;
51006;SDS011;37034;47.886;-3.904;2023-07-20T02:17:35;8.48;;;1.85;;
51006;SDS011;37034;47.886;-3.904;2023-07-20T02:20:02;7.97;;;1.92;;
51006;SDS011;37034;47.886;-3.904;2023-07-20T02:22:28;7.45;;;1.83;;
51006;SDS011;37034;47.886;-3.904;2023-07-20T02:24:53;8.50;;;1.83;;
51006;SDS011;37034;47.886;-3.904;2023-07-20T02:27:19;8.50;;;2.00;;
51006;SDS011;37034;47.886;-3.904;2023-07-20T02:29:45;7.07;;;1.95;;
51006;SDS011;37034;47.886;-3.904;2023-07-20T02:32:10;4.43;;;1.53;;
51006;SDS011;37034;47.886;-3.904;2023-07-20T02:34:36;9.00;;;1.95;;
51006;SDS011;37034;47.886;-3.904;2023-07-20T02:37:02;6.28;;;1.85;;
51006;SDS011;37034;47.886;-3.904;2023-07-20T02:39:27;10.30;;;2.05;;
51006;SDS011;37034;47.886;-3.904;2023-07-20T02:41:53;5.55;;;1.80;;
51006;SDS011;37034;47.886;-3.904;2023-07-20T02:44:19;12.13;;;2.13;;
51006;SDS011;37034;47.886;-3.904;2023-07-20T02:46:45;9.02;;;1.75;;
51006;SDS011;37034;47.886;-3.904;2023-07-20T02:49:10;7.13;;;2.00;;
51006;SDS011;37034;47.886;-3.904;2023-07-20T02:51:36;9.60;;;2.42;;
51006;SDS011;37034;47.886;-3.904;2023-07-20T02:54:02;7.45;;;1.92;;
51006;SDS011;37034;47.886;-3.904;2023-07-20T02:56:28;12.57;;;2.05;;
51006;SDS011;37034;47.886;-3.904;2023-07-20T02:58:54;13.13;;;2.50;;
51006;SDS011;37034;47.886;-3.904;2023-07-20T03:01:19;8.35;;;1.83;;
51006;SDS011;37034;47.886;-3.904;2023-07-20T03:03:45;6.82;;;1.75;;
51006;SDS011;37034;47.886;-3.904;2023-07-20T03:06:15;6.85;;;1.30;;
51006;SDS011;37034;47.886;-3.904;2023-07-20T03:08:41;6.30;;;1.83;;
51006;SDS011;37034;47.886;-3.904;2023-07-20T03:11:10;7.15;;;1.83;;
51006;SDS011;37034;47.886;-3.904;2023-07-20T03:13:36;9.52;;;1.85;;
51006;SDS011;37034;47.886;-3.904;2023-07-20T03:16:01;10.03;;;1.83;;
51006;SDS011;37034;47.886;-3.904;2023-07-20T03:18:27;9.00;;;2.08;;
51006;SDS011;37034;47.886;-3.904;2023-07-20T03:20:53;6.93;;;1.83;;
51006;SDS011;37034;47.886;-3.904;2023-07-20T03:23:18;9.77;;;2.60;;
51006;SDS011;37034;47.886;-3.904;2023-07-20T03:25:44;10.32;;;2.42;;
51006;SDS011;37034;47.886;-3.904;2023-07-20T03:28:09;7.80;;;2.00;;
51006;SDS011;37034;47.886;-3.904;2023-07-20T03:30:35;12.57;;;2.40;;
51006;SDS011;37034;47.886;-3.904;2023-07-20T03:33:01;11.67;;;2.30;;
51006;SDS011;37034;47.886;-3.904;2023-07-20T03:35:28;6.78;;;1.95;;
51006;SDS011;37034;47.886;-3.904;2023-07-20T03:37:53;6.57;;;2.17;;
51006;SDS011;37034;47.886;-3.904;2023-07-20T03:40:19;8.88;;;2.08;;
51006;SDS011;37034;47.886;-3.904;2023-07-20T03:42:45;11.70;;;2.13;;
51006;SDS011;37034;47.886;-3.904;2023-07-20T03:45:10;9.23;;;2.33;;
51006;SDS011;37034;47.886;-3.904;2023-07-20T03:47:36;8.75;;;2.10;;
51006;SDS011;37034;47.886;-3.904;2023-07-20T03:50:02;7.57;;;2.10;;
51006;SDS011;37034;47.886;-3.904;2023-07-20T03:52:28;7.68;;;2.15;;
51006;SDS011;37034;47.886;-3.904;2023-07-20T03:54:54;7.05;;;1.88;;
51006;SDS011;37034;47.886;-3.904;2023-07-20T03:57:20;7.43;;;2.00;;
51006;SDS011;37034;47.886;-3.904;2023-07-20T03:59:45;6.80;;;1.87;;
51006;SDS011;37034;47.886;-3.904;2023-07-20T04:02:11;13.18;;;2.10;;
51006;SDS011;37034;47.886;-3.904;2023-07-20T04:04:37;10.48;;;2.28;;
51006;SDS011;37034;47.886;-3.904;2023-07-20T04:07:03;7.55;;;2.30;;
51006;SDS011;37034;47.886;-3.904;2023-07-20T04:09:29;8.57;;;2.00;;
51006;SDS011;37034;47.886;-3.904;2023-07-20T04:11:57;11.45;;;2.83;;
51006;SDS011;37034;47.886;-3.904;2023-07-20T04:14:23;8.67;;;2.17;;
51006;SDS011;37034;47.886;-3.904;2023-07-20T04:16:48;9.47;;;2.93;;
51006;SDS011;37034;47.886;-3.904;2023-07-20T04:19:16;11.00;;;2.28;;
51006;SDS011;37034;47.886;-3.904;2023-07-20T04:21:43;9.90;;;2.78;;
51006;SDS011;37034;47.886;-3.904;2023-07-20T04:24:09;7.60;;;2.17;;
51006;SDS011;37034;47.886;-3.904;2023-07-20T04:26:34;7.70;;;2.25;;
51006;SDS011;37034;47.886;-3.904;2023-07-20T04:29:00;6.90;;;2.03;;
51006;SDS011;37034;47.886;-3.904;2023-07-20T04:31:26;8.85;;;2.05;;
51006;SDS011;37034;47.886;-3.904;2023-07-20T04:33:52;10.85;;;2.33;;
51006;SDS011;37034;47.886;-3.904;2023-07-20T04:36:17;9.43;;;2.17;;
51006;SDS011;37034;47.886;-3.904;2023-07-20T04:38:47;9.52;;;2.47;;
51006;SDS011;37034;47.886;-3.904;2023-07-20T04:41:13;6.03;;;1.83;;
51006;SDS011;37034;47.886;-3.904;2023-07-20T04:43:42;9.88;;;2.30;;
51006;SDS011;37034;47.886;-3.904;2023-07-20T04:46:09;6.32;;;2.13;;
51006;SDS011;37034;47.886;-3.904;2023-07-20T04:48:35;8.80;;;2.70;;
51006;SDS011;37034;47.886;-3.904;2023-07-20T04:51:01;10.57;;;2.90;;
51006;SDS011;37034;47.886;-3.904;2023-07-20T04:53:27;9.25;;;2.33;;
51006;SDS011;37034;47.886;-3.904;2023-07-20T04:55:53;10.67;;;3.70;;
51006;SDS011;37034;47.886;-3.904;2023-07-20T04:58:19;8.23;;;3.25;;
51006;SDS011;37034;47.886;-3.904;2023-07-20T05:00:47;7.68;;;2.88;;
51006;SDS011;37034;47.886;-3.904;2023-07-20T05:03:14;8.13;;;2.05;;
51006;SDS011;37034;47.886;-3.904;2023-07-20T05:05:39;8.60;;;2.37;;
51006;SDS011;37034;47.886;-3.904;2023-07-20T05:08:05;8.68;;;2.35;;
51006;SDS011;37034;47.886;-3.904;2023-07-20T05:10:31;12.97;;;2.10;;
51006;SDS011;37034;47.886;-3.904;2023-07-20T05:15:23;5.10;;;2.17;;
51006;SDS011;37034;47.886;-3.904;2023-07-20T05:17:48;6.45;;;1.95;;
51006;SDS011;37034;47.886;-3.904;2023-07-20T05:20:14;8.75;;;2.65;;
51006;SDS011;37034;47.886;-3.904;2023-07-20T05:22:40;12.48;;;2.38;;
51006;SDS011;37034;47.886;-3.904;2023-07-20T05:25:07;10.52;;;2.58;;
51006;SDS011;37034;47.886;-3.904;2023-07-20T05:27:33;9.40;;;2.72;;
51006;SDS011;37034;47.886;-3.904;2023-07-20T05:30:03;6.45;;;2.03;;
51006;SDS011;37034;47.886;-3.904;2023-07-20T05:32:29;7.35;;;2.17;;
51006;SDS011;37034;47.886;-3.904;2023-07-20T05:34:55;10.10;;;2.78;;
51006;SDS011;37034;47.886;-3.904;2023-07-20T05:37:21;7.95;;;2.53;;
51006;SDS011;37034;47.886;-3.904;2023-07-20T05:39:46;7.07;;;2.42;;
51006;SDS011;37034;47.886;-3.904;2023-07-20T05:42:12;9.98;;;2.70;;
51006;SDS011;37034;47.886;-3.904;2023-07-20T05:44:38;9.75;;;2.50;;
51006;SDS011;37034;47.886;-3.904;2023-07-20T05:49:30;9.55;;;2.88;;
51006;SDS011;37034;47.886;-3.904;2023-07-20T05:51:56;6.70;;;2.42;;
51006;SDS011;37034;47.886;-3.904;2023-07-20T05:54:22;6.72;;;2.50;;
51006;SDS011;37034;47.886;-3.904;2023-07-20T05:56:50;11.45;;;2.92;;
51006;SDS011;37034;47.886;-3.904;2023-07-20T05:59:15;7.95;;;2.50;;
51006;SDS011;37034;47.886;-3.904;2023-07-20T06:01:41;8.57;;;2.55;;
51006;SDS011;37034;47.886;-3.904;2023-07-20T06:04:08;12.95;;;3.30;;
51006;SDS011;37034;47.886;-3.904;2023-07-20T06:06:33;12.93;;;3.42;;
51006;SDS011;37034;47.886;-3.904;2023-07-20T06:09:00;10.23;;;2.47;;
51006;SDS011;37034;47.886;-3.904;2023-07-20T06:11:29;12.07;;;2.45;;
51006;SDS011;37034;47.886;-3.904;2023-07-20T06:13:57;12.68;;;3.80;;
51006;SDS011;37034;47.886;-3.904;2023-07-20T06:16:23;14.57;;;3.27;;
51006;SDS011;37034;47.886;-3.904;2023-07-20T06:18:48;10.23;;;3.45;;
51006;SDS011;37034;47.886;-3.904;2023-07-20T06:21:14;11.15;;;2.80;;
51006;SDS011;37034;47.886;-3.904;2023-07-20T06:23:40;12.05;;;3.47;;
51006;SDS011;37034;47.886;-3.904;2023-07-20T06:26:06;8.10;;;3.28;;
51006;SDS011;37034;47.886;-3.904;2023-07-20T06:28:32;14.85;;;4.38;;
51006;SDS011;37034;47.886;-3.904;2023-07-20T06:30:59;10.07;;;4.00;;
51006;SDS011;37034;47.886;-3.904;2023-07-20T06:33:25;13.27;;;3.30;;
51006;SDS011;37034;47.886;-3.904;2023-07-20T06:35:51;10.23;;;2.47;;
51006;SDS011;37034;47.886;-3.904;2023-07-20T06:38:17;9.07;;;3.20;;
51006;SDS011;37034;47.886;-3.904;2023-07-20T06:40:45;11.27;;;3.78;;
51006;SDS011;37034;47.886;-3.904;2023-07-20T06:43:11;10.48;;;3.53;;
51006;SDS011;37034;47.886;-3.904;2023-07-20T06:45:37;12.27;;;3.95;;
51006;SDS011;37034;47.886;-3.904;2023-07-20T06:48:03;6.88;;;3.67;;
51006;SDS011;37034;47.886;-3.904;2023-07-20T06:50:29;10.00;;;4.15;;
51006;SDS011;37034;47.886;-3.904;2023-07-20T06:52:55;10.77;;;4.15;;
51006;SDS011;37034;47.886;-3.904;2023-07-20T06:55:20;11.45;;;5.53;;
51006;SDS011;37034;47.886;-3.904;2023-07-20T06:57:46;7.22;;;4.45;;
51006;SDS011;37034;47.886;-3.904;2023-07-20T07:00:12;8.88;;;4.70;;
51006;SDS011;37034;47.886;-3.904;2023-07-20T07:02:38;8.15;;;5.15;;
51006;SDS011;37034;47.886;-3.904;2023-07-20T07:05:04;14.88;;;5.78;;
51006;SDS011;37034;47.886;-3.904;2023-07-20T07:07:30;14.02;;;7.28;;
51006;SDS011;37034;47.886;-3.904;2023-07-20T07:09:56;9.40;;;5.63;;
51006;SDS011;37034;47.886;-3.904;2023-07-20T07:12:21;8.25;;;5.68;;
51006;SDS011;37034;47.886;-3.904;2023-07-20T07:14:47;12.15;;;6.63;;
51006;SDS011;37034;47.886;-3.904;2023-07-20T07:17:13;9.60;;;5.80;;
51006;SDS011;37034;47.886;-3.904;2023-07-20T07:19:39;11.38;;;6.22;;
51006;SDS011;37034;47.886;-3.904;2023-07-20T07:22:05;9.10;;;5.88;;
51006;SDS011;37034;47.886;-3.904;2023-07-20T07:24:31;10.30;;;5.43;;
51006;SDS011;37034;47.886;-3.904;2023-07-20T07:27:00;10.15;;;6.15;;
51006;SDS011;37034;47.886;-3.904;2023-07-20T07:29:26;11.05;;;5.50;;
51006;SDS011;37034;47.886;-3.904;2023-07-20T07:31:52;8.68;;;5.05;;
51006;SDS011;37034;47.886;-3.904;2023-07-20T07:34:17;10.93;;;5.55;;
51006;SDS011;37034;47.886;-3.904;2023-07-20T07:36:43;8.65;;;4.57;;
51006;SDS011;37034;47.886;-3.904;2023-07-20T07:39:09;10.98;;;4.30;;
51006;SDS011;37034;47.886;-3.904;2023-07-20T07:41:35;6.40;;;3.38;;
51006;SDS011;37034;47.886;-3.904;2023-07-20T07:44:01;9.85;;;4.22;;
51006;SDS011;37034;47.886;-3.904;2023-07-20T07:46:26;8.25;;;3.33;;
51006;SDS011;37034;47.886;-3.904;2023-07-20T07:48:52;8.43;;;3.00;;
51006;SDS011;37034;47.886;-3.904;2023-07-20T07:51:18;4.97;;;3.22;;
51006;SDS011;37034;47.886;-3.904;2023-07-20T07:53:45;9.50;;;3.20;;
51006;SDS011;37034;47.886;-3.904;2023-07-20T07:56:11;8.55;;;3.00;;
51006;SDS011;37034;47.886;-3.904;2023-07-20T07:58:36;11.05;;;3.60;;
51006;SDS011;37034;47.886;-3.904;2023-07-20T08:01:03;7.40;;;3.00;;
51006;SDS011;37034;47.886;-3.904;2023-07-20T08:03:29;8.05;;;3.10;;
51006;SDS011;37034;47.886;-3.904;2023-07-20T08:05:55;6.85;;;2.75;;
51006;SDS011;37034;47.886;-3.904;2023-07-20T08:08:20;6.20;;;2.53;;
51006;SDS011;37034;47.886;-3.904;2023-07-20T08:10:47;7.07;;;3.03;;
51006;SDS011;37034;47.886;-3.904;2023-07-20T08:13:13;7.70;;;2.60;;
51006;SDS011;37034;47.886;-3.904;2023-07-20T08:15:39;7.70;;;2.60;;
51006;SDS011;37034;47.886;-3.904;2023-07-20T08:18:06;7.05;;;2.00;;
51006;SDS011;37034;47.886;-3.904;2023-07-20T08:23:00;7.22;;;1.98;;
51006;SDS011;37034;47.886;-3.904;2023-07-20T08:25:26;7.18;;;1.70;;
51006;SDS011;37034;47.886;-3.904;2023-07-20T08:27:52;7.20;;;1.67;;
51006;SDS011;37034;47.886;-3.904;2023-07-20T08:30:20;3.50;;;1.65;;
51006;SDS011;37034;47.886;-3.904;2023-07-20T08:32:46;3.97;;;1.65;;
51006;SDS011;37034;47.886;-3.904;2023-07-20T08:35:12;5.70;;;2.20;;
51006;SDS011;37034;47.886;-3.904;2023-07-20T08:37:37;6.13;;;1.92;;
51006;SDS011;37034;47.886;-3.904;2023-07-20T08:40:03;5.53;;;1.92;;
51006;SDS011;37034;47.886;-3.904;2023-07-20T08:42:30;8.93;;;2.05;;
51006;SDS011;37034;47.886;-3.904;2023-07-20T08:44:56;7.22;;;1.67;;
51006;SDS011;37034;47.886;-3.904;2023-07-20T08:49:49;3.10;;;1.55;;
51006;SDS011;37034;47.886;-3.904;2023-07-20T08:52:15;3.95;;;1.50;;
51006;SDS011;37034;47.886;-3.904;2023-07-20T08:54:41;7.28;;;1.35;;
51006;SDS011;37034;47.886;-3.904;2023-07-20T08:57:07;6.85;;;1.85;;
51006;SDS011;37034;47.886;-3.904;2023-07-20T08:59:37;3.83;;;1.20;;
51006;SDS011;37034;47.886;-3.904;2023-07-20T09:02:04;2.20;;;0.90;;
51006;SDS011;37034;47.886;-3.904;2023-07-20T09:04:32;3.08;;;1.10;;
51006;SDS011;37034;47.886;-3.904;2023-07-20T09:06:58;5.90;;;1.40;;
51006;SDS011;37034;47.886;-3.904;2023-07-20T09:09:24;4.25;;;1.10;;
51006;SDS011;37034;47.886;-3.904;2023-07-20T09:11:50;2.92;;;1.27;;
51006;SDS011;37034;47.886;-3.904;2023-07-20T09:14:15;4.10;;;1.20;;
51006;SDS011;37034;47.886;-3.904;2023-07-20T09:16:48;1.77;;;0.90;;
51006;SDS011;37034;47.886;-3.904;2023-07-20T09:19:15;5.53;;;1.00;;
51006;SDS011;37034;47.886;-3.904;2023-07-20T09:21:51;4.13;;;1.30;;
51006;SDS011;37034;47.886;-3.904;2023-07-20T09:24:17;4.00;;;0.93;;
51006;SDS011;37034;47.886;-3.904;2023-07-20T09:26:45;3.53;;;1.00;;
51006;SDS011;37034;47.886;-3.904;2023-07-20T09:29:19;2.45;;;1.17;;
51006;SDS011;37034;47.886;-3.904;2023-07-20T09:34:43;2.95;;;1.40;;
51006;SDS011;37034;47.886;-3.904;2023-07-20T09:37:09;5.88;;;1.35;;
51006;SDS011;37034;47.886;-3.904;2023-07-20T09:39:41;2.90;;;1.13;;
51006;SDS011;37034;47.886;-3.904;2023-07-20T09:42:09;3.33;;;1.10;;
51006;SDS011;37034;47.886;-3.904;2023-07-20T09:44:39;2.97;;;1.30;;
51006;SDS011;37034;47.886;-3.904;2023-07-20T09:47:05;3.38;;;1.05;;
51006;SDS011;37034;47.886;-3.904;2023-07-20T09:49:31;4.13;;;1.02;;
51006;SDS011;37034;47.886;-3.904;2023-07-20T09:51:57;3.38;;;1.20;;
51006;SDS011;37034;47.886;-3.904;2023-07-20T09:54:26;4.93;;;1.10;;
51006;SDS011;37034;47.886;-3.904;2023-07-20T09:56:53;3.83;;;1.55;;
51006;SDS011;37034;47.886;-3.904;2023-07-20T09:59:19;4.82;;;1.90;;
51006;SDS011;37034;47.886;-3.904;2023-07-20T10:01:45;7.78;;;2.53;;
51006;SDS011;37034;47.886;-3.904;2023-07-20T10:04:12;8.32;;;1.90;;
51006;SDS011;37034;47.886;-3.904;2023-07-20T10:06:42;3.65;;;1.50;;
51006;SDS011;37034;47.886;-3.904;2023-07-20T10:09:08;3.88;;;1.65;;
51006;SDS011;37034;47.886;-3.904;2023-07-20T10:11:36;5.97;;;1.83;;
51006;SDS011;37034;47.886;-3.904;2023-07-20T10:14:04;6.53;;;1.58;;
51006;SDS011;37034;47.886;-3.904;2023-07-20T10:16:32;5.18;;;1.40;;
51006;SDS011;37034;47.886;-3.904;2023-07-20T10:19:03;3.75;;;1.60;;
51006;SDS011;37034;47.886;-3.904;2023-07-20T10:21:35;7.85;;;1.58;;
51006;SDS011;37034;47.886;-3.904;2023-07-20T10:24:05;6.50;;;2.00;;
51006;SDS011;37034;47.886;-3.904;2023-07-20T10:26:32;4.80;;;1.83;;
51006;SDS011;37034;47.886;-3.904;2023-07-20T10:28:58;4.28;;;1.58;;
51006;SDS011;37034;47.886;-3.904;2023-07-20T10:31:26;3.60;;;1.75;;
51006;SDS011;37034;47.886;-3.904;2023-07-20T10:33:53;6.25;;;1.60;;
51006;SDS011;37034;47.886;-3.904;2023-07-20T10:36:24;8.07;;;1.60;;
51006;SDS011;37034;47.886;-3.904;2023-07-20T10:38:53;5.60;;;1.83;;
51006;SDS011;37034;47.886;-3.904;2023-07-20T10:41:27;3.95;;;1.60;;
51006;SDS011;37034;47.886;-3.904;2023-07-20T10:43:58;5.15;;;1.60;;
51006;SDS011;37034;47.886;-3.904;2023-07-20T10:49:04;6.88;;;2.25;;
51006;SDS011;37034;47.886;-3.904;2023-07-20T10:51:41;6.70;;;1.90;;
51006;SDS011;37034;47.886;-3.904;2023-07-20T10:56:44;8.35;;;1.92;;
51006;SDS011;37034;47.886;-3.904;2023-07-20T11:01:54;7.00;;;1.88;;
51006;SDS011;37034;47.886;-3.904;2023-07-20T11:04:37;4.50;;;1.58;;
51006;SDS011;37034;47.886;-3.904;2023-07-20T11:07:03;5.32;;;1.98;;
51006;SDS011;37034;47.886;-3.904;2023-07-20T11:09:33;4.13;;;1.88;;
51006;SDS011;37034;47.886;-3.904;2023-07-20T11:12:09;5.60;;;1.83;;
51006;SDS011;37034;47.886;-3.904;2023-07-20T11:17:15;6.85;;;1.85;;
51006;SDS011;37034;47.886;-3.904;2023-07-20T11:19:45;3.88;;;1.67;;
51006;SDS011;37034;47.886;-3.904;2023-07-20T11:22:14;4.65;;;1.70;;
51006;SDS011;37034;47.886;-3.904;2023-07-20T11:24:42;5.18;;;1.55;;
51006;SDS011;37034;47.886;-3.904;2023-07-20T11:27:08;2.97;;;1.67;;
51006;SDS011;37034;47.886;-3.904;2023-07-20T11:29:34;3.95;;;1.50;;
51006;SDS011;37034;47.886;-3.904;2023-07-20T11:32:02;5.07;;;1.58;;
51006;SDS011;37034;47.886;-3.904;2023-07-20T11:36:56;6.72;;;2.08;;
51006;SDS011;37034;47.886;-3.904;2023-07-20T11:39:22;5.10;;;1.40;;
51006;SDS011;37034;47.886;-3.904;2023-07-20T11:41:53;9.82;;;2.17;;
51006;SDS011;37034;47.886;-3.904;2023-07-20T11:44:21;5.30;;;1.83;;
51006;SDS011;37034;47.886;-3.904;2023-07-20T11:46:58;6.07;;;1.77;;
51006;SDS011;37034;47.886;-3.904;2023-07-20T11:49:39;5.32;;;1.90;;
51006;SDS011;37034;47.886;-3.904;2023-07-20T11:52:06;5.88;;;1.40;;
51006;SDS011;37034;47.886;-3.904;2023-07-20T11:54:39;6.68;;;1.90;;
51006;SDS011;37034;47.886;-3.904;2023-07-20T11:57:06;5.85;;;1.80;;
51006;SDS011;37034;47.886;-3.904;2023-07-20T11:59:32;4.55;;;1.33;;
51006;SDS011;37034;47.886;-3.904;2023-07-20T12:02:00;6.55;;;1.83;;
51006;SDS011;37034;47.886;-3.904;2023-07-20T12:04:28;4.93;;;1.60;;
51006;SDS011;37034;47.886;-3.904;2023-07-20T12:09:20;6.97;;;1.58;;
51006;SDS011;37034;47.886;-3.904;2023-07-20T12:11:48;5.15;;;1.70;;
51006;SDS011;37034;47.886;-3.904;2023-07-20T12:14:14;5.88;;;1.80;;
51006;SDS011;37034;47.886;-3.904;2023-07-20T12:16:40;6.10;;;1.77;;
51006;SDS011;37034;47.886;-3.904;2023-07-20T12:19:06;3.55;;;1.58;;
51006;SDS011;37034;47.886;-3.904;2023-07-20T12:21:34;5.07;;;1.70;;
51006;SDS011;37034;47.886;-3.904;2023-07-20T12:24:04;4.07;;;2.00;;
51006;SDS011;37034;47.886;-3.904;2023-07-20T12:26:30;5.82;;;2.10;;
51006;SDS011;37034;47.886;-3.904;2023-07-20T12:28:57;5.13;;;1.75;;
51006;SDS011;37034;47.886;-3.904;2023-07-20T12:31:24;5.28;;;1.90;;
51006;SDS011;37034;47.886;-3.904;2023-07-20T12:33:50;4.70;;;1.90;;
51006;SDS011;37034;47.886;-3.904;2023-07-20T12:36:17;5.97;;;1.70;;
51006;SDS011;37034;47.886;-3.904;2023-07-20T12:38:43;5.50;;;1.55;;
51006;SDS011;37034;47.886;-3.904;2023-07-20T12:43:37;8.32;;;1.73;;
51006;SDS011;37034;47.886;-3.904;2023-07-20T12:46:03;6.68;;;2.22;;
51006;SDS011;37034;47.886;-3.904;2023-07-20T12:50:55;6.03;;;2.03;;
51006;SDS011;37034;47.886;-3.904;2023-07-20T12:53:21;3.75;;;1.40;;
51006;SDS011;37034;47.886;-3.904;2023-07-20T12:55:47;3.75;;;1.50;;
51006;SDS011;37034;47.886;-3.904;2023-07-20T12:58:12;5.65;;;1.40;;
51006;SDS011;37034;47.886;-3.904;2023-07-20T13:00:39;4.07;;;1.50;;
51006;SDS011;37034;47.886;-3.904;2023-07-20T13:05:31;3.75;;;1.30;;
51006;SDS011;37034;47.886;-3.904;2023-07-20T13:07:57;5.32;;;1.63;;
51006;SDS011;37034;47.886;-3.904;2023-07-20T13:10:23;4.68;;;1.52;;
51006;SDS011;37034;47.886;-3.904;2023-07-20T13:12:49;7.80;;;1.80;;
51006;SDS011;37034;47.886;-3.904;2023-07-20T13:15:15;5.45;;;1.40;;
51006;SDS011;37034;47.886;-3.904;2023-07-20T13:17:43;3.65;;;1.45;;
51006;SDS011;37034;47.886;-3.904;2023-07-20T13:20:10;5.90;;;1.95;;
51006;SDS011;37034;47.886;-3.904;2023-07-20T13:22:39;8.68;;;1.83;;
51006;SDS011;37034;47.886;-3.904;2023-07-20T13:25:05;8.50;;;1.88;;
51006;SDS011;37034;47.886;-3.904;2023-07-20T13:27:35;9.45;;;1.80;;
51006;SDS011;37034;47.886;-3.904;2023-07-20T13:30:02;6.60;;;1.80;;
51006;SDS011;37034;47.886;-3.904;2023-07-20T13:32:31;8.32;;;1.70;;
51006;SDS011;37034;47.886;-3.904;2023-07-20T13:34:57;6.30;;;1.60;;
51006;SDS011;37034;47.886;-3.904;2023-07-20T13:37:23;5.93;;;1.80;;
51006;SDS011;37034;47.886;-3.904;2023-07-20T13:39:49;3.65;;;1.30;;
51006;SDS011;37034;47.886;-3.904;2023-07-20T13:42:14;3.58;;;1.48;;
51006;SDS011;37034;47.886;-3.904;2023-07-20T13:44:40;5.32;;;1.60;;
51006;SDS011;37034;47.886;-3.904;2023-07-20T13:47:06;3.55;;;1.48;;
51006;SDS011;37034;47.886;-3.904;2023-07-20T13:49:32;2.17;;;1.40;;
51006;SDS011;37034;47.886;-3.904;2023-07-20T13:51:57;8.25;;;1.33;;
51006;SDS011;37034;47.886;-3.904;2023-07-20T13:54:26;9.20;;;2.35;;
51006;SDS011;37034;47.886;-3.904;2023-07-20T13:56:51;6.22;;;1.90;;
51006;SDS011;37034;47.886;-3.904;2023-07-20T13:59:17;6.13;;;1.70;;
51006;SDS011;37034;47.886;-3.904;2023-07-20T14:01:43;1.92;;;1.27;;
51006;SDS011;37034;47.886;-3.904;2023-07-20T14:04:09;2.35;;;1.20;;
51006;SDS011;37034;47.886;-3.904;2023-07-20T14:06:34;2.40;;;1.42;;
51006;SDS011;37034;47.886;-3.904;2023-07-20T14:09:01;7.53;;;1.60;;
51006;SDS011;37034;47.886;-3.904;2023-07-20T14:11:28;4.30;;;1.30;;
51006;SDS011;37034;47.886;-3.904;2023-07-20T14:13:54;6.53;;;1.40;;
51006;SDS011;37034;47.886;-3.904;2023-07-20T14:16:20;6.00;;;1.42;;
51006;SDS011;37034;47.886;-3.904;2023-07-20T14:18:46;3.42;;;1.55;;
51006;SDS011;37034;47.886;-3.904;2023-07-20T14:21:13;4.40;;;1.30;;
51006;SDS011;37034;47.886;-3.904;2023-07-20T14:23:46;5.22;;;1.58;;
51006;SDS011;37034;47.886;-3.904;2023-07-20T14:26:13;3.42;;;1.50;;
51006;SDS011;37034;47.886;-3.904;2023-07-20T14:28:39;4.13;;;1.50;;
51006;SDS011;37034;47.886;-3.904;2023-07-20T14:31:05;6.13;;;1.80;;
51006;SDS011;37034;47.886;-3.904;2023-07-20T14:35:57;4.05;;;1.70;;
51006;SDS011;37034;47.886;-3.904;2023-07-20T14:38:23;3.63;;;1.80;;
51006;SDS011;37034;47.886;-3.904;2023-07-20T14:40:48;8.35;;;1.70;;
51006;SDS011;37034;47.886;-3.904;2023-07-20T14:43:14;4.90;;;1.92;;
51006;SDS011;37034;47.886;-3.904;2023-07-20T14:45:40;5.13;;;1.65;;
51006;SDS011;37034;47.886;-3.904;2023-07-20T14:48:06;3.45;;;1.50;;
51006;SDS011;37034;47.886;-3.904;2023-07-20T14:50:32;3.63;;;1.45;;
51006;SDS011;37034;47.886;-3.904;2023-07-20T14:52:58;4.85;;;1.35;;
51006;SDS011;37034;47.886;-3.904;2023-07-20T14:55:24;3.22;;;1.67;;
51006;SDS011;37034;47.886;-3.904;2023-07-20T14:57:50;2.50;;;1.20;;
51006;SDS011;37034;47.886;-3.904;2023-07-20T15:02:42;4.20;;;1.77;;
51006;SDS011;37034;47.886;-3.904;2023-07-20T15:05:09;4.15;;;1.52;;
51006;SDS011;37034;47.886;-3.904;2023-07-20T15:07:35;3.67;;;1.45;;
51006;SDS011;37034;47.886;-3.904;2023-07-20T15:10:02;3.75;;;1.30;;
51006;SDS011;37034;47.886;-3.904;2023-07-20T15:12:31;3.63;;;1.50;;
51006;SDS011;37034;47.886;-3.904;2023-07-20T15:15:03;3.88;;;1.50;;
51006;SDS011;37034;47.886;-3.904;2023-07-20T15:17:37;4.38;;;1.42;;
51006;SDS011;37034;47.886;-3.904;2023-07-20T15:20:04;3.30;;;1.48;;
51006;SDS011;37034;47.886;-3.904;2023-07-20T15:22:32;6.25;;;1.30;;
51006;SDS011;37034;47.886;-3.904;2023-07-20T15:25:02;2.53;;;1.30;;
51006;SDS011;37034;47.886;-3.904;2023-07-20T15:27:29;4.40;;;1.45;;